VJT212 LFMN-GMAD
Flight info
| Callsign | VJT212 |
|---|---|
| Flight time | 2h 46m |
| Altitude | 40000 |
| Route | EPOLO DCT SOFFY DCT NILDU DCT NENDA DCT BCN DCT RODRA DCT PEXOT DCT EBROX DCT LOTOS DCT TORDU DCT DIKUT DCT SOPET DCT VLC DCT BEGOX DCT NARGO DCT RESTU DCT DOSEK DCT AMR DCT GONZA DCT BERUM UG850 FES UM372 MAK UG850 OLOMA |
| Aircraft | GLF5/M-SFGHIRWXY/S |
Departure
| Time | 2026-04-24 13:36 |
|---|---|
| Airport | Nice-Côte d'Azur Airport (LFMN) |
Arrival
| Time | 2026-04-24 16:22 |
|---|---|
| Airport | Al Massira Airport (GMAD) |
| Time | Latitude | Longitude | Altitude | Speed | Heading |
|---|---|---|---|---|---|
| 2026-04-24 12:47 | 43.66428 | 7.21683 | 29 ft | 0 kts | 134° |
| 2026-04-24 13:30 | 43.66420 | 7.21693 | 28 ft | 1 kts | 136° |
| 2026-04-24 13:31 | 43.66409 | 7.21709 | 28 ft | 7 kts | 129° |
| 2026-04-24 13:31 | 43.66427 | 7.21795 | 28 ft | 11 kts | 44° |
| 2026-04-24 13:31 | 43.66478 | 7.21867 | 28 ft | 9 kts | 44° |
| 2026-04-24 13:31 | 43.66490 | 7.21884 | 28 ft | 0 kts | 45° |
| 2026-04-24 13:32 | 43.66506 | 7.21905 | 28 ft | 9 kts | 42° |
| 2026-04-24 13:33 | 43.66592 | 7.22022 | 28 ft | 24 kts | 44° |
| 2026-04-24 13:33 | 43.66738 | 7.22218 | 28 ft | 29 kts | 45° |
| 2026-04-24 13:33 | 43.66819 | 7.22344 | 28 ft | 14 kts | 72° |
| 2026-04-24 13:33 | 43.66772 | 7.22452 | 28 ft | 13 kts | 137° |
| 2026-04-24 13:34 | 43.66710 | 7.22539 | 28 ft | 12 kts | 133° |
| 2026-04-24 13:34 | 43.66654 | 7.22616 | 28 ft | 10 kts | 135° |
| 2026-04-24 13:34 | 43.66603 | 7.22688 | 28 ft | 9 kts | 132° |
| 2026-04-24 13:34 | 43.66560 | 7.22757 | 28 ft | 9 kts | 129° |
| 2026-04-24 13:35 | 43.66519 | 7.22783 | 28 ft | 0 kts | 218° |
| 2026-04-24 13:35 | 43.66499 | 7.22755 | 28 ft | 15 kts | 225° |
| 2026-04-24 13:36 | 43.66194 | 7.22335 | 28 ft | 109 kts | 224° |
| 2026-04-24 13:36 | 43.65502 | 7.21371 | 409 ft | 157 kts | 224° |
| 2026-04-24 13:36 | 43.64762 | 7.20316 | 1486 ft | 164 kts | 225° |
| 2026-04-24 13:36 | 43.64000 | 7.19190 | 2406 ft | 168 kts | 226° |
| 2026-04-24 13:37 | 43.63225 | 7.18065 | 3289 ft | 171 kts | 226° |
| 2026-04-24 13:37 | 43.62333 | 7.16851 | 4072 ft | 185 kts | 225° |
| 2026-04-24 13:37 | 43.61322 | 7.15576 | 4637 ft | 218 kts | 209° |
| 2026-04-24 13:37 | 43.59844 | 7.15334 | 5699 ft | 226 kts | 163° |
| 2026-04-24 13:38 | 43.58389 | 7.16260 | 6520 ft | 247 kts | 159° |
| 2026-04-24 13:38 | 43.56591 | 7.16350 | 7136 ft | 273 kts | 197° |
| 2026-04-24 13:38 | 43.54801 | 7.15438 | 8247 ft | 283 kts | 201° |
| 2026-04-24 13:38 | 43.52959 | 7.14468 | 9334 ft | 293 kts | 201° |
| 2026-04-24 13:39 | 43.51052 | 7.13460 | 10490 ft | 301 kts | 200° |
| 2026-04-24 13:39 | 43.48956 | 7.12357 | 10654 ft | 344 kts | 200° |
| 2026-04-24 13:39 | 43.46698 | 7.11165 | 11628 ft | 356 kts | 200° |
| 2026-04-24 13:39 | 43.44341 | 7.09923 | 12586 ft | 368 kts | 200° |
| 2026-04-24 13:40 | 43.41960 | 7.08668 | 13741 ft | 374 kts | 199° |
| 2026-04-24 13:40 | 43.39524 | 7.07387 | 14802 ft | 381 kts | 199° |
| 2026-04-24 13:40 | 43.37050 | 7.06086 | 15932 ft | 387 kts | 199° |
| 2026-04-24 13:40 | 43.34520 | 7.04757 | 16928 ft | 395 kts | 199° |
| 2026-04-24 13:41 | 43.31942 | 7.03404 | 18021 ft | 401 kts | 199° |
| 2026-04-24 13:41 | 43.29303 | 7.02019 | 19118 ft | 407 kts | 199° |
| 2026-04-24 13:41 | 43.26654 | 7.00631 | 20217 ft | 414 kts | 199° |
| 2026-04-24 13:41 | 43.23947 | 6.99214 | 21310 ft | 420 kts | 198° |
| 2026-04-24 13:42 | 43.21183 | 6.97768 | 22299 ft | 427 kts | 198° |
| 2026-04-24 13:42 | 43.18437 | 6.96212 | 23285 ft | 435 kts | 206° |
| 2026-04-24 13:42 | 43.16052 | 6.93580 | 24284 ft | 444 kts | 224° |
| 2026-04-24 13:42 | 43.13960 | 6.90529 | 25146 ft | 451 kts | 225° |
| 2026-04-24 13:43 | 43.11775 | 6.87347 | 26105 ft | 455 kts | 225° |
| 2026-04-24 13:43 | 43.09610 | 6.84209 | 26954 ft | 462 kts | 225° |
| 2026-04-24 13:43 | 43.07394 | 6.81001 | 27804 ft | 467 kts | 225° |
| 2026-04-24 13:43 | 43.05138 | 6.77740 | 28629 ft | 472 kts | 225° |
| 2026-04-24 13:44 | 43.02870 | 6.74467 | 29451 ft | 477 kts | 225° |
| 2026-04-24 13:44 | 43.00553 | 6.71126 | 30177 ft | 483 kts | 225° |
| 2026-04-24 13:44 | 42.98214 | 6.67759 | 30913 ft | 488 kts | 225° |
| 2026-04-24 13:44 | 42.95869 | 6.64385 | 31765 ft | 488 kts | 225° |
| 2026-04-24 13:45 | 42.93529 | 6.61022 | 32673 ft | 486 kts | 225° |
| 2026-04-24 13:45 | 42.91201 | 6.57616 | 33519 ft | 485 kts | 229° |
| 2026-04-24 13:45 | 42.89531 | 6.53680 | 34249 ft | 486 kts | 249° |
| 2026-04-24 13:45 | 42.88870 | 6.49155 | 35188 ft | 481 kts | 269° |
| 2026-04-24 13:46 | 42.89177 | 6.44692 | 36038 ft | 477 kts | 280° |
| 2026-04-24 13:46 | 42.89677 | 6.40270 | 36893 ft | 474 kts | 279° |
| 2026-04-24 13:46 | 42.90162 | 6.35791 | 37649 ft | 472 kts | 279° |
| 2026-04-24 13:46 | 42.90628 | 6.31419 | 38394 ft | 470 kts | 278° |
| 2026-04-24 13:47 | 42.91093 | 6.27024 | 39043 ft | 469 kts | 278° |
| 2026-04-24 13:47 | 42.91555 | 6.22630 | 39675 ft | 468 kts | 279° |
| 2026-04-24 13:47 | 42.92014 | 6.18251 | 40130 ft | 465 kts | 279° |
| 2026-04-24 13:47 | 42.92475 | 6.13832 | 40107 ft | 464 kts | 279° |
| 2026-04-24 13:48 | 42.93379 | 6.05130 | 40131 ft | 461 kts | 279° |
| 2026-04-24 13:48 | 42.94276 | 5.96421 | 40109 ft | 461 kts | 279° |
| 2026-04-24 13:49 | 42.95157 | 5.87803 | 40120 ft | 460 kts | 279° |
| 2026-04-24 13:49 | 42.96034 | 5.79163 | 40111 ft | 461 kts | 279° |
| 2026-04-24 13:50 | 42.96913 | 5.70421 | 40114 ft | 461 kts | 279° |
| 2026-04-24 13:50 | 42.97780 | 5.61739 | 40368 ft | 464 kts | 279° |
| 2026-04-24 13:51 | 42.98215 | 5.57359 | 40880 ft | 462 kts | 279° |
| 2026-04-24 13:51 | 42.98643 | 5.53027 | 41320 ft | 461 kts | 279° |
| 2026-04-24 13:51 | 42.99070 | 5.48695 | 41725 ft | 459 kts | 279° |
| 2026-04-24 13:51 | 42.99498 | 5.44334 | 42095 ft | 458 kts | 279° |
| 2026-04-24 13:52 | 42.99918 | 5.40030 | 42441 ft | 458 kts | 278° |
| 2026-04-24 13:52 | 43.00337 | 5.35731 | 42784 ft | 457 kts | 278° |
| 2026-04-24 13:52 | 43.00757 | 5.31393 | 43089 ft | 456 kts | 278° |
| 2026-04-24 13:52 | 43.01173 | 5.27087 | 43410 ft | 455 kts | 278° |
| 2026-04-24 13:53 | 43.01576 | 5.22754 | 43710 ft | 455 kts | 275° |
| 2026-04-24 13:53 | 43.01320 | 5.18477 | 43888 ft | 457 kts | 254° |
| 2026-04-24 13:53 | 42.99976 | 5.14504 | 44113 ft | 458 kts | 236° |
| 2026-04-24 13:53 | 42.98089 | 5.10950 | 44357 ft | 458 kts | 234° |
| 2026-04-24 13:54 | 42.96172 | 5.07433 | 44595 ft | 459 kts | 234° |
| 2026-04-24 13:54 | 42.94240 | 5.03919 | 44847 ft | 458 kts | 233° |
| 2026-04-24 13:54 | 42.92322 | 5.00442 | 45079 ft | 456 kts | 233° |
| 2026-04-24 13:54 | 42.90412 | 4.96988 | 45101 ft | 454 kts | 234° |
| 2026-04-24 13:55 | 42.86585 | 4.90081 | 45115 ft | 454 kts | 233° |
| 2026-04-24 13:55 | 42.82777 | 4.83225 | 45111 ft | 456 kts | 234° |
| 2026-04-24 13:56 | 42.78931 | 4.76318 | 45109 ft | 456 kts | 234° |
| 2026-04-24 13:56 | 42.75104 | 4.69459 | 45116 ft | 456 kts | 234° |
| 2026-04-24 13:57 | 42.71253 | 4.62574 | 45118 ft | 455 kts | 234° |
| 2026-04-24 13:57 | 42.67440 | 4.55772 | 45113 ft | 455 kts | 234° |
| 2026-04-24 13:58 | 42.63610 | 4.48956 | 45117 ft | 455 kts | 234° |
| 2026-04-24 13:58 | 42.59758 | 4.42115 | 45116 ft | 456 kts | 234° |
| 2026-04-24 13:59 | 42.55906 | 4.35292 | 45118 ft | 456 kts | 234° |
| 2026-04-24 13:59 | 42.52013 | 4.28410 | 45119 ft | 456 kts | 233° |
| 2026-04-24 14:00 | 42.48152 | 4.21602 | 45121 ft | 455 kts | 233° |
| 2026-04-24 14:00 | 42.44300 | 4.14825 | 45123 ft | 455 kts | 234° |
| 2026-04-24 14:01 | 42.40407 | 4.07989 | 45119 ft | 455 kts | 234° |
| 2026-04-24 14:01 | 42.36548 | 4.01230 | 45123 ft | 455 kts | 234° |
| 2026-04-24 14:02 | 42.32639 | 3.94400 | 45120 ft | 455 kts | 234° |
| 2026-04-24 14:02 | 42.28768 | 3.87650 | 45120 ft | 455 kts | 234° |
| 2026-04-24 14:03 | 42.24938 | 3.80835 | 45120 ft | 454 kts | 237° |
| 2026-04-24 14:03 | 42.21310 | 3.73913 | 45118 ft | 454 kts | 236° |
| 2026-04-24 14:04 | 42.17672 | 3.67010 | 45114 ft | 454 kts | 236° |
| 2026-04-24 14:04 | 42.14021 | 3.60101 | 45112 ft | 453 kts | 236° |
| 2026-04-24 14:05 | 42.10352 | 3.53175 | 45114 ft | 453 kts | 236° |
| 2026-04-24 14:05 | 42.06679 | 3.46256 | 45107 ft | 454 kts | 236° |
| 2026-04-24 14:06 | 42.03027 | 3.39392 | 45101 ft | 454 kts | 236° |
| 2026-04-24 14:06 | 41.99334 | 3.32469 | 45102 ft | 454 kts | 236° |
| 2026-04-24 14:07 | 41.95657 | 3.25590 | 45098 ft | 454 kts | 236° |
| 2026-04-24 14:07 | 41.91975 | 3.18717 | 45103 ft | 454 kts | 236° |
| 2026-04-24 14:08 | 41.88286 | 3.11846 | 45097 ft | 454 kts | 235° |
| 2026-04-24 14:08 | 41.84569 | 3.04940 | 45098 ft | 454 kts | 236° |
| 2026-04-24 14:09 | 41.80861 | 2.98065 | 45103 ft | 453 kts | 236° |
| 2026-04-24 14:09 | 41.77159 | 2.91218 | 45105 ft | 453 kts | 236° |
| 2026-04-24 14:10 | 41.73459 | 2.84389 | 45105 ft | 452 kts | 236° |
| 2026-04-24 14:10 | 41.69758 | 2.77574 | 45104 ft | 453 kts | 235° |
| 2026-04-24 14:11 | 41.65950 | 2.70858 | 45102 ft | 453 kts | 233° |
| 2026-04-24 14:12 | 41.60152 | 2.60897 | 45095 ft | 454 kts | 233° |
| 2026-04-24 14:12 | 41.56289 | 2.54276 | 45097 ft | 453 kts | 233° |
| 2026-04-24 14:13 | 41.52395 | 2.47616 | 45095 ft | 452 kts | 233° |
| 2026-04-24 14:13 | 41.48546 | 2.41046 | 45102 ft | 451 kts | 233° |
| 2026-04-24 14:14 | 41.44660 | 2.34430 | 45104 ft | 451 kts | 233° |
| 2026-04-24 14:14 | 41.38867 | 2.24592 | 45110 ft | 452 kts | 233° |
| 2026-04-24 14:15 | 41.34974 | 2.17998 | 45119 ft | 453 kts | 233° |
| 2026-04-24 14:15 | 41.31063 | 2.11389 | 45112 ft | 452 kts | 233° |
| 2026-04-24 14:16 | 41.26872 | 2.05088 | 45116 ft | 452 kts | 229° |
| 2026-04-24 14:17 | 41.20615 | 1.95835 | 45113 ft | 450 kts | 229° |
| 2026-04-24 14:17 | 41.14351 | 1.86590 | 45106 ft | 450 kts | 229° |
| 2026-04-24 14:18 | 41.10174 | 1.80441 | 45115 ft | 449 kts | 229° |
| 2026-04-24 14:18 | 41.05985 | 1.74287 | 45107 ft | 450 kts | 229° |
| 2026-04-24 14:19 | 41.01796 | 1.68144 | 45105 ft | 451 kts | 229° |
| 2026-04-24 14:19 | 40.97580 | 1.61975 | 45105 ft | 450 kts | 229° |
| 2026-04-24 14:20 | 40.93401 | 1.55871 | 45109 ft | 448 kts | 229° |
| 2026-04-24 14:20 | 40.89216 | 1.49771 | 45110 ft | 448 kts | 229° |
| 2026-04-24 14:21 | 40.84991 | 1.43627 | 45109 ft | 449 kts | 229° |
| 2026-04-24 14:21 | 40.80786 | 1.37527 | 45106 ft | 449 kts | 229° |
| 2026-04-24 14:22 | 40.76568 | 1.31421 | 45108 ft | 449 kts | 228° |
| 2026-04-24 14:23 | 40.70273 | 1.22330 | 45104 ft | 450 kts | 228° |
| 2026-04-24 14:23 | 40.66054 | 1.16246 | 45104 ft | 449 kts | 228° |
| 2026-04-24 14:24 | 40.61858 | 1.10205 | 45103 ft | 450 kts | 228° |
| 2026-04-24 14:24 | 40.57637 | 1.04141 | 45103 ft | 450 kts | 228° |
| 2026-04-24 14:25 | 40.53389 | 0.98055 | 45101 ft | 449 kts | 228° |
| 2026-04-24 14:25 | 40.49173 | 0.92029 | 45092 ft | 449 kts | 228° |
| 2026-04-24 14:26 | 40.44968 | 0.86034 | 45096 ft | 449 kts | 228° |
| 2026-04-24 14:26 | 40.40735 | 0.80010 | 45086 ft | 449 kts | 228° |
| 2026-04-24 14:27 | 40.36491 | 0.73982 | 45088 ft | 450 kts | 228° |
| 2026-04-24 14:27 | 40.32256 | 0.67979 | 45086 ft | 450 kts | 228° |
| 2026-04-24 14:28 | 40.27992 | 0.61946 | 45084 ft | 450 kts | 228° |
| 2026-04-24 14:28 | 40.23740 | 0.55945 | 45083 ft | 450 kts | 227° |
| 2026-04-24 14:29 | 40.19501 | 0.49974 | 45082 ft | 450 kts | 227° |
| 2026-04-24 14:29 | 40.15219 | 0.43957 | 45085 ft | 449 kts | 227° |
| 2026-04-24 14:30 | 40.11694 | 0.39011 | 45086 ft | 448 kts | 227° |
| 2026-04-24 14:30 | 40.07446 | 0.33060 | 45081 ft | 449 kts | 227° |
| 2026-04-24 14:31 | 40.03156 | 0.27065 | 45086 ft | 451 kts | 227° |
| 2026-04-24 14:31 | 39.98880 | 0.21097 | 45086 ft | 451 kts | 227° |
| 2026-04-24 14:32 | 39.94595 | 0.15124 | 45086 ft | 450 kts | 227° |
| 2026-04-24 14:32 | 39.90326 | 0.09183 | 45082 ft | 451 kts | 227° |
| 2026-04-24 14:33 | 39.85927 | 0.03076 | 45096 ft | 465 kts | 227° |
| 2026-04-24 14:33 | 39.81454 | -0.03122 | 45089 ft | 470 kts | 227° |
| 2026-04-24 14:34 | 39.76950 | -0.09346 | 45072 ft | 468 kts | 227° |
| 2026-04-24 14:34 | 39.72487 | -0.15501 | 45083 ft | 466 kts | 227° |
| 2026-04-24 14:35 | 39.68044 | -0.21617 | 45086 ft | 466 kts | 227° |
| 2026-04-24 14:35 | 39.63614 | -0.27704 | 45081 ft | 467 kts | 227° |
| 2026-04-24 14:36 | 39.59147 | -0.33827 | 45092 ft | 467 kts | 227° |
| 2026-04-24 14:36 | 39.54680 | -0.39939 | 45085 ft | 467 kts | 226° |
| 2026-04-24 14:37 | 39.50249 | -0.45948 | 45063 ft | 462 kts | 226° |
| 2026-04-24 14:37 | 39.45273 | -0.51028 | 45128 ft | 455 kts | 204° |
| 2026-04-24 14:38 | 39.39553 | -0.54629 | 45071 ft | 463 kts | 208° |
| 2026-04-24 14:38 | 39.33820 | -0.58570 | 45074 ft | 467 kts | 208° |
| 2026-04-24 14:39 | 39.28116 | -0.62526 | 45074 ft | 467 kts | 208° |
| 2026-04-24 14:39 | 39.22379 | -0.66502 | 45081 ft | 466 kts | 208° |
| 2026-04-24 14:40 | 39.16692 | -0.70436 | 45074 ft | 467 kts | 208° |
| 2026-04-24 14:40 | 39.10947 | -0.74403 | 45082 ft | 466 kts | 208° |
| 2026-04-24 14:41 | 39.05235 | -0.78340 | 45084 ft | 467 kts | 208° |
| 2026-04-24 14:41 | 38.99480 | -0.82299 | 45083 ft | 466 kts | 208° |
| 2026-04-24 14:42 | 38.93761 | -0.86226 | 45075 ft | 465 kts | 208° |
| 2026-04-24 14:42 | 38.88003 | -0.90171 | 45078 ft | 465 kts | 208° |
| 2026-04-24 14:43 | 38.82263 | -0.94098 | 45078 ft | 464 kts | 208° |
| 2026-04-24 14:43 | 38.76522 | -0.98018 | 45076 ft | 465 kts | 208° |
| 2026-04-24 14:44 | 38.70901 | -1.01849 | 45073 ft | 464 kts | 208° |
| 2026-04-24 14:44 | 38.65196 | -1.05731 | 45074 ft | 464 kts | 208° |
| 2026-04-24 14:45 | 38.59462 | -1.09625 | 45082 ft | 465 kts | 208° |
| 2026-04-24 14:45 | 38.53746 | -1.13501 | 45074 ft | 464 kts | 208° |
| 2026-04-24 14:46 | 38.48020 | -1.17376 | 45060 ft | 464 kts | 208° |
| 2026-04-24 14:46 | 38.42278 | -1.21254 | 45062 ft | 464 kts | 208° |
| 2026-04-24 14:47 | 38.36565 | -1.25106 | 45061 ft | 465 kts | 208° |
| 2026-04-24 14:47 | 38.30841 | -1.28958 | 45058 ft | 465 kts | 208° |
| 2026-04-24 14:48 | 38.25102 | -1.32814 | 45059 ft | 464 kts | 208° |
| 2026-04-24 14:48 | 38.19352 | -1.36671 | 45050 ft | 465 kts | 208° |
| 2026-04-24 14:49 | 38.13594 | -1.40525 | 45052 ft | 464 kts | 208° |
| 2026-04-24 14:49 | 38.07867 | -1.44351 | 45080 ft | 463 kts | 208° |
| 2026-04-24 14:50 | 38.02130 | -1.48178 | 45081 ft | 464 kts | 208° |
| 2026-04-24 14:50 | 37.96403 | -1.51991 | 45078 ft | 463 kts | 208° |
| 2026-04-24 14:51 | 37.90662 | -1.55805 | 45056 ft | 464 kts | 208° |
| 2026-04-24 14:51 | 37.84909 | -1.59554 | 45086 ft | 463 kts | 208° |
| 2026-04-24 14:52 | 37.79141 | -1.63305 | 45061 ft | 462 kts | 208° |
| 2026-04-24 14:52 | 37.73374 | -1.67050 | 45064 ft | 463 kts | 207° |
| 2026-04-24 14:53 | 37.67592 | -1.70797 | 45078 ft | 463 kts | 207° |
| 2026-04-24 14:53 | 37.61797 | -1.74546 | 45050 ft | 462 kts | 207° |
| 2026-04-24 14:54 | 37.56064 | -1.78248 | 45062 ft | 462 kts | 207° |
| 2026-04-24 14:54 | 37.50318 | -1.81952 | 45069 ft | 463 kts | 207° |
| 2026-04-24 14:55 | 37.45518 | -1.85042 | 45073 ft | 462 kts | 208° |
| 2026-04-24 14:55 | 37.38789 | -1.89365 | 45083 ft | 463 kts | 208° |
| 2026-04-24 14:56 | 37.33028 | -1.93060 | 45057 ft | 462 kts | 208° |
| 2026-04-24 14:56 | 37.27285 | -1.96737 | 45054 ft | 462 kts | 208° |
| 2026-04-24 14:57 | 37.21552 | -2.00490 | 45044 ft | 463 kts | 209° |
| 2026-04-24 14:57 | 37.15847 | -2.04305 | 45063 ft | 463 kts | 209° |
| 2026-04-24 14:58 | 37.10183 | -2.08086 | 45068 ft | 463 kts | 210° |
| 2026-04-24 14:58 | 37.04488 | -2.11880 | 45052 ft | 463 kts | 210° |
| 2026-04-24 14:59 | 36.98777 | -2.15679 | 45065 ft | 463 kts | 210° |
| 2026-04-24 14:59 | 36.93088 | -2.19456 | 45088 ft | 463 kts | 210° |
| 2026-04-24 15:00 | 36.87338 | -2.23267 | 45092 ft | 464 kts | 210° |
| 2026-04-24 15:00 | 36.81823 | -2.27395 | 45090 ft | 459 kts | 220° |
| 2026-04-24 15:01 | 36.76812 | -2.32378 | 45079 ft | 460 kts | 220° |
| 2026-04-24 15:01 | 36.71753 | -2.37387 | 45061 ft | 461 kts | 220° |
| 2026-04-24 15:02 | 36.66655 | -2.42426 | 45068 ft | 461 kts | 220° |
| 2026-04-24 15:02 | 36.61607 | -2.47407 | 45058 ft | 461 kts | 220° |
| 2026-04-24 15:03 | 36.56583 | -2.52355 | 45059 ft | 460 kts | 220° |
| 2026-04-24 15:03 | 36.51568 | -2.57288 | 45054 ft | 459 kts | 220° |
| 2026-04-24 15:04 | 36.46521 | -2.62242 | 45055 ft | 459 kts | 220° |
| 2026-04-24 15:04 | 36.41475 | -2.67186 | 45058 ft | 459 kts | 219° |
| 2026-04-24 15:05 | 36.36433 | -2.72118 | 45053 ft | 459 kts | 219° |
| 2026-04-24 15:05 | 36.31372 | -2.77062 | 45053 ft | 459 kts | 219° |
| 2026-04-24 15:06 | 36.26316 | -2.81992 | 45056 ft | 460 kts | 219° |
| 2026-04-24 15:06 | 36.21238 | -2.86934 | 45051 ft | 459 kts | 219° |
| 2026-04-24 15:07 | 36.16182 | -2.91846 | 45049 ft | 459 kts | 219° |
| 2026-04-24 15:07 | 36.11110 | -2.96766 | 45048 ft | 460 kts | 219° |
| 2026-04-24 15:08 | 36.06044 | -3.01673 | 45050 ft | 461 kts | 219° |
| 2026-04-24 15:08 | 36.00986 | -3.06563 | 45046 ft | 460 kts | 219° |
| 2026-04-24 15:09 | 35.95937 | -3.11437 | 45046 ft | 459 kts | 219° |
| 2026-04-24 15:09 | 35.90893 | -3.16297 | 45046 ft | 460 kts | 219° |
| 2026-04-24 15:10 | 35.85829 | -3.21168 | 45048 ft | 461 kts | 220° |
| 2026-04-24 15:10 | 35.80760 | -3.25993 | 45045 ft | 460 kts | 219° |
| 2026-04-24 15:11 | 35.75631 | -3.30821 | 45044 ft | 460 kts | 219° |
| 2026-04-24 15:11 | 35.70536 | -3.35609 | 45041 ft | 459 kts | 219° |
| 2026-04-24 15:12 | 35.65413 | -3.40416 | 45040 ft | 459 kts | 219° |
| 2026-04-24 15:12 | 35.57786 | -3.47557 | 45043 ft | 459 kts | 219° |
| 2026-04-24 15:13 | 35.52648 | -3.52357 | 45043 ft | 460 kts | 219° |
| 2026-04-24 15:13 | 35.47561 | -3.57102 | 45042 ft | 459 kts | 219° |
| 2026-04-24 15:14 | 35.42498 | -3.61817 | 45041 ft | 458 kts | 220° |
| 2026-04-24 15:14 | 35.37401 | -3.66558 | 45049 ft | 458 kts | 219° |
| 2026-04-24 15:15 | 35.32266 | -3.71323 | 45055 ft | 458 kts | 219° |
| 2026-04-24 15:15 | 35.27165 | -3.76050 | 45059 ft | 458 kts | 219° |
| 2026-04-24 15:16 | 35.22059 | -3.80776 | 45060 ft | 458 kts | 219° |
| 2026-04-24 15:16 | 35.16962 | -3.85537 | 45065 ft | 458 kts | 220° |
| 2026-04-24 15:17 | 35.11927 | -3.90339 | 45068 ft | 457 kts | 220° |
| 2026-04-24 15:17 | 35.06898 | -3.95123 | 45074 ft | 457 kts | 220° |
| 2026-04-24 15:18 | 35.01849 | -3.99919 | 45078 ft | 458 kts | 220° |
| 2026-04-24 15:18 | 34.96752 | -4.04752 | 45083 ft | 458 kts | 220° |
| 2026-04-24 15:19 | 34.91690 | -4.09544 | 45080 ft | 457 kts | 221° |
| 2026-04-24 15:19 | 34.86610 | -4.14347 | 45091 ft | 456 kts | 221° |
| 2026-04-24 15:20 | 34.81535 | -4.19136 | 45092 ft | 456 kts | 221° |
| 2026-04-24 15:20 | 34.76511 | -4.23870 | 45102 ft | 457 kts | 221° |
| 2026-04-24 15:21 | 34.71432 | -4.28648 | 45096 ft | 458 kts | 221° |
| 2026-04-24 15:21 | 34.66365 | -4.33407 | 45083 ft | 458 kts | 221° |
| 2026-04-24 15:22 | 34.61297 | -4.38160 | 45077 ft | 458 kts | 221° |
| 2026-04-24 15:23 | 34.53676 | -4.45293 | 45074 ft | 459 kts | 221° |
| 2026-04-24 15:23 | 34.46021 | -4.52441 | 45072 ft | 458 kts | 221° |
| 2026-04-24 15:25 | 34.34217 | -4.63387 | 45059 ft | 458 kts | 222° |
| 2026-04-24 15:26 | 34.20480 | -4.76012 | 45060 ft | 461 kts | 222° |
| 2026-04-24 15:27 | 34.05090 | -4.90091 | 45069 ft | 459 kts | 222° |
| 2026-04-24 15:29 | 33.89673 | -5.04011 | 45070 ft | 461 kts | 221° |
| 2026-04-24 15:31 | 33.71404 | -5.19832 | 45075 ft | 459 kts | 221° |
| 2026-04-24 15:33 | 33.50431 | -5.37891 | 45086 ft | 459 kts | 221° |
| 2026-04-24 15:34 | 33.37403 | -5.49046 | 45077 ft | 459 kts | 221° |
| 2026-04-24 15:35 | 33.24334 | -5.60190 | 45076 ft | 459 kts | 221° |
| 2026-04-24 15:36 | 33.19115 | -5.64627 | 45074 ft | 459 kts | 222° |
| 2026-04-24 15:36 | 33.11276 | -5.71281 | 45089 ft | 460 kts | 221° |
| 2026-04-24 15:37 | 33.06020 | -5.75734 | 45080 ft | 460 kts | 221° |
| 2026-04-24 15:37 | 33.00766 | -5.80178 | 45075 ft | 459 kts | 221° |
| 2026-04-24 15:38 | 32.95540 | -5.84593 | 45075 ft | 459 kts | 221° |
| 2026-04-24 15:38 | 32.90298 | -5.89014 | 45083 ft | 459 kts | 221° |
| 2026-04-24 15:39 | 32.85042 | -5.93440 | 45079 ft | 459 kts | 221° |
| 2026-04-24 15:39 | 32.79818 | -5.97833 | 45067 ft | 459 kts | 221° |
| 2026-04-24 15:40 | 32.74602 | -6.02213 | 45063 ft | 459 kts | 221° |
| 2026-04-24 15:40 | 32.69346 | -6.06632 | 45082 ft | 459 kts | 221° |
| 2026-04-24 15:41 | 32.64099 | -6.11038 | 45095 ft | 459 kts | 222° |
| 2026-04-24 15:41 | 32.58819 | -6.15465 | 45099 ft | 458 kts | 222° |
| 2026-04-24 15:42 | 32.53585 | -6.19849 | 45074 ft | 459 kts | 222° |
| 2026-04-24 15:42 | 32.48350 | -6.24226 | 45052 ft | 459 kts | 222° |
| 2026-04-24 15:43 | 32.43166 | -6.28586 | 45040 ft | 455 kts | 226° |
| 2026-04-24 15:43 | 32.41108 | -6.31353 | 45083 ft | 434 kts | 244° |
| 2026-04-24 15:43 | 32.39659 | -6.34498 | 45052 ft | 434 kts | 248° |
| 2026-04-24 15:44 | 32.36888 | -6.40814 | 45056 ft | 435 kts | 248° |
| 2026-04-24 15:44 | 32.34130 | -6.47133 | 45075 ft | 433 kts | 248° |
| 2026-04-24 15:45 | 32.31354 | -6.53486 | 45061 ft | 433 kts | 248° |
| 2026-04-24 15:45 | 32.28592 | -6.59799 | 45060 ft | 432 kts | 248° |
| 2026-04-24 15:46 | 32.25829 | -6.66101 | 45062 ft | 431 kts | 248° |
| 2026-04-24 15:46 | 32.23027 | -6.72481 | 45066 ft | 433 kts | 248° |
| 2026-04-24 15:47 | 32.20260 | -6.78772 | 45044 ft | 432 kts | 248° |
| 2026-04-24 15:47 | 32.17504 | -6.85029 | 45073 ft | 431 kts | 248° |
| 2026-04-24 15:48 | 32.14737 | -6.91299 | 45069 ft | 431 kts | 248° |
| 2026-04-24 15:48 | 32.11962 | -6.97573 | 45047 ft | 430 kts | 248° |
| 2026-04-24 15:49 | 32.09188 | -7.03841 | 45048 ft | 430 kts | 248° |
| 2026-04-24 15:49 | 32.06416 | -7.10091 | 45052 ft | 428 kts | 248° |
| 2026-04-24 15:50 | 32.03712 | -7.16162 | 43524 ft | 415 kts | 248° |
| 2026-04-24 15:50 | 32.02406 | -7.19108 | 41400 ft | 411 kts | 248° |
| 2026-04-24 15:50 | 32.01100 | -7.22038 | 39051 ft | 408 kts | 248° |
| 2026-04-24 15:51 | 31.99835 | -7.24871 | 36726 ft | 404 kts | 248° |
| 2026-04-24 15:51 | 31.98562 | -7.27717 | 34075 ft | 406 kts | 249° |
| 2026-04-24 15:51 | 31.97301 | -7.30541 | 30431 ft | 415 kts | 249° |
| 2026-04-24 15:51 | 31.96044 | -7.33356 | 26314 ft | 425 kts | 249° |
| 2026-04-24 15:52 | 31.94774 | -7.36198 | 21640 ft | 434 kts | 248° |
| 2026-04-24 15:52 | 31.93517 | -7.39024 | 16522 ft | 446 kts | 244° |
| 2026-04-24 15:52 | 31.92159 | -7.42057 | 13326 ft | 433 kts | 243° |
| 2026-04-24 15:52 | 31.90827 | -7.45011 | 13054 ft | 395 kts | 243° |
| 2026-04-24 15:53 | 31.89566 | -7.47810 | 13013 ft | 369 kts | 243° |
| 2026-04-24 15:53 | 31.88389 | -7.50430 | 13044 ft | 353 kts | 243° |
| 2026-04-24 15:53 | 31.87264 | -7.52930 | 13046 ft | 344 kts | 243° |
| 2026-04-24 15:53 | 31.86158 | -7.55392 | 13039 ft | 339 kts | 243° |
| 2026-04-24 15:54 | 31.85058 | -7.57834 | 13036 ft | 336 kts | 244° |
| 2026-04-24 15:54 | 31.83966 | -7.60262 | 13025 ft | 335 kts | 243° |
| 2026-04-24 15:54 | 31.82881 | -7.62669 | 13028 ft | 333 kts | 244° |
| 2026-04-24 15:54 | 31.81788 | -7.65091 | 13035 ft | 332 kts | 243° |
| 2026-04-24 15:55 | 31.80695 | -7.67514 | 13027 ft | 332 kts | 243° |
| 2026-04-24 15:55 | 31.79608 | -7.69921 | 13033 ft | 332 kts | 243° |
| 2026-04-24 15:55 | 31.78530 | -7.72303 | 13025 ft | 332 kts | 243° |
| 2026-04-24 15:55 | 31.77437 | -7.74719 | 13041 ft | 332 kts | 243° |
| 2026-04-24 15:56 | 31.76352 | -7.77118 | 13056 ft | 332 kts | 243° |
| 2026-04-24 15:56 | 31.75254 | -7.79543 | 13032 ft | 333 kts | 243° |
| 2026-04-24 15:56 | 31.74167 | -7.81938 | 13032 ft | 332 kts | 243° |
| 2026-04-24 15:56 | 31.73072 | -7.84354 | 13041 ft | 333 kts | 243° |
| 2026-04-24 15:57 | 31.71980 | -7.86759 | 13041 ft | 333 kts | 243° |
| 2026-04-24 15:57 | 31.70882 | -7.89179 | 13045 ft | 334 kts | 243° |
| 2026-04-24 15:57 | 31.69794 | -7.91572 | 13031 ft | 335 kts | 243° |
| 2026-04-24 15:57 | 31.68695 | -7.93989 | 13024 ft | 335 kts | 243° |
| 2026-04-24 15:58 | 31.67567 | -7.96472 | 13241 ft | 359 kts | 243° |
| 2026-04-24 15:58 | 31.66360 | -7.99119 | 13030 ft | 370 kts | 243° |
| 2026-04-24 15:58 | 31.65136 | -8.01803 | 13029 ft | 369 kts | 243° |
| 2026-04-24 15:58 | 31.63923 | -8.04462 | 13025 ft | 367 kts | 243° |
| 2026-04-24 15:59 | 31.62692 | -8.07160 | 13032 ft | 386 kts | 243° |
| 2026-04-24 15:59 | 31.61343 | -8.09915 | 13028 ft | 398 kts | 234° |
| 2026-04-24 15:59 | 31.59374 | -8.12202 | 13048 ft | 403 kts | 222° |
| 2026-04-24 15:59 | 31.57221 | -8.14374 | 13016 ft | 405 kts | 222° |
| 2026-04-24 16:00 | 31.55067 | -8.16546 | 13018 ft | 404 kts | 222° |
| 2026-04-24 16:00 | 31.52940 | -8.18690 | 13032 ft | 406 kts | 222° |
| 2026-04-24 16:00 | 31.50776 | -8.20871 | 13033 ft | 405 kts | 222° |
| 2026-04-24 16:00 | 31.48653 | -8.23010 | 13035 ft | 392 kts | 222° |
| 2026-04-24 16:01 | 31.46605 | -8.25073 | 13778 ft | 394 kts | 223° |
| 2026-04-24 16:01 | 31.44590 | -8.27090 | 15015 ft | 387 kts | 224° |
| 2026-04-24 16:01 | 31.42503 | -8.29197 | 15035 ft | 403 kts | 224° |
| 2026-04-24 16:01 | 31.40350 | -8.31363 | 15060 ft | 412 kts | 224° |
| 2026-04-24 16:02 | 31.38147 | -8.33577 | 15062 ft | 414 kts | 223° |
| 2026-04-24 16:02 | 31.35956 | -8.35774 | 15070 ft | 415 kts | 224° |
| 2026-04-24 16:02 | 31.33793 | -8.37945 | 15066 ft | 413 kts | 224° |
| 2026-04-24 16:02 | 31.31603 | -8.40140 | 15090 ft | 413 kts | 224° |
| 2026-04-24 16:03 | 31.29425 | -8.42322 | 15073 ft | 413 kts | 224° |
| 2026-04-24 16:03 | 31.27224 | -8.44525 | 15109 ft | 409 kts | 224° |
| 2026-04-24 16:03 | 31.25139 | -8.46607 | 15079 ft | 387 kts | 224° |
| 2026-04-24 16:03 | 31.23129 | -8.48620 | 15076 ft | 377 kts | 224° |
| 2026-04-24 16:04 | 31.21129 | -8.50634 | 15111 ft | 376 kts | 224° |
| 2026-04-24 16:04 | 31.19134 | -8.52640 | 15118 ft | 376 kts | 224° |
| 2026-04-24 16:04 | 31.17143 | -8.54642 | 15123 ft | 377 kts | 224° |
| 2026-04-24 16:04 | 31.15149 | -8.56646 | 15127 ft | 378 kts | 224° |
| 2026-04-24 16:05 | 31.11132 | -8.60678 | 15144 ft | 377 kts | 224° |
| 2026-04-24 16:05 | 31.09153 | -8.62663 | 15149 ft | 377 kts | 224° |
| 2026-04-24 16:06 | 31.05136 | -8.66686 | 15145 ft | 377 kts | 224° |
| 2026-04-24 16:06 | 31.03379 | -8.68445 | 15150 ft | 377 kts | 224° |
| 2026-04-24 16:06 | 30.99599 | -8.72225 | 15185 ft | 376 kts | 224° |
| 2026-04-24 16:07 | 30.97593 | -8.74229 | 15257 ft | 377 kts | 224° |
| 2026-04-24 16:07 | 30.95592 | -8.76229 | 15250 ft | 378 kts | 224° |
| 2026-04-24 16:07 | 30.91611 | -8.80203 | 15230 ft | 378 kts | 224° |
| 2026-04-24 16:08 | 30.89623 | -8.82184 | 15204 ft | 377 kts | 224° |
| 2026-04-24 16:08 | 30.85599 | -8.86130 | 15166 ft | 376 kts | 224° |
| 2026-04-24 16:09 | 30.81564 | -8.90081 | 14569 ft | 376 kts | 223° |
| 2026-04-24 16:09 | 30.79560 | -8.92041 | 14166 ft | 374 kts | 223° |
| 2026-04-24 16:09 | 30.77580 | -8.93978 | 13761 ft | 372 kts | 222° |
| 2026-04-24 16:09 | 30.75599 | -8.95912 | 13356 ft | 371 kts | 222° |
| 2026-04-24 16:10 | 30.69691 | -9.01676 | 12110 ft | 368 kts | 222° |
| 2026-04-24 16:11 | 30.65777 | -9.05491 | 11278 ft | 365 kts | 221° |
| 2026-04-24 16:11 | 30.63848 | -9.07371 | 10863 ft | 357 kts | 222° |
| 2026-04-24 16:11 | 30.61964 | -9.09218 | 10347 ft | 336 kts | 222° |
| 2026-04-24 16:12 | 30.58510 | -9.12609 | 9570 ft | 314 kts | 222° |
| 2026-04-24 16:12 | 30.56841 | -9.14246 | 9147 ft | 309 kts | 222° |
| 2026-04-24 16:12 | 30.53176 | -9.16559 | 8308 ft | 302 kts | 181° |
| 2026-04-24 16:13 | 30.51134 | -9.16177 | 7804 ft | 283 kts | 163° |
| 2026-04-24 16:13 | 30.47387 | -9.14925 | 7118 ft | 277 kts | 162° |
| 2026-04-24 16:14 | 30.43634 | -9.13646 | 6307 ft | 278 kts | 162° |
| 2026-04-24 16:14 | 30.41773 | -9.13008 | 5902 ft | 279 kts | 162° |
| 2026-04-24 16:14 | 30.38024 | -9.11720 | 5120 ft | 278 kts | 163° |
| 2026-04-24 16:15 | 30.36773 | -9.11291 | 4982 ft | 272 kts | 163° |
| 2026-04-24 16:15 | 30.32810 | -9.09905 | 4961 ft | 238 kts | 162° |
| 2026-04-24 16:16 | 30.29802 | -9.10444 | 4988 ft | 224 kts | 233° |
| 2026-04-24 16:16 | 30.29291 | -9.12020 | 4980 ft | 202 kts | 277° |
| 2026-04-24 16:17 | 30.31457 | -9.15621 | 4389 ft | 189 kts | 292° |
| 2026-04-24 16:17 | 30.31673 | -9.18592 | 3854 ft | 182 kts | 275° |
| 2026-04-24 16:18 | 30.31761 | -9.21464 | 3296 ft | 172 kts | 275° |
| 2026-04-24 16:18 | 30.31825 | -9.23962 | 2826 ft | 137 kts | 277° |
| 2026-04-24 16:18 | 30.31855 | -9.25066 | 2636 ft | 135 kts | 276° |
| 2026-04-24 16:19 | 30.31913 | -9.27213 | 2294 ft | 133 kts | 277° |
| 2026-04-24 16:19 | 30.31941 | -9.28276 | 2122 ft | 131 kts | 275° |
| 2026-04-24 16:20 | 30.31994 | -9.30410 | 1783 ft | 135 kts | 275° |
| 2026-04-24 16:20 | 30.32049 | -9.32546 | 1421 ft | 129 kts | 274° |
| 2026-04-24 16:20 | 30.32074 | -9.33605 | 1256 ft | 129 kts | 271° |
| 2026-04-24 16:21 | 30.32131 | -9.35706 | 956 ft | 138 kts | 271° |
| 2026-04-24 16:21 | 30.32155 | -9.36824 | 736 ft | 137 kts | 270° |
| 2026-04-24 16:21 | 30.32186 | -9.37954 | 573 ft | 135 kts | 270° |
| 2026-04-24 16:22 | 30.32212 | -9.39069 | 377 ft | 142 kts | 269° |
| 2026-04-24 16:22 | 30.32251 | -9.40865 | 268 ft | 58 kts | 270° |
| 2026-04-24 16:22 | 30.32329 | -9.41244 | 269 ft | 28 kts | 303° |